메인 페이지
METAR-TAF:

METAR-TAF

공항 :

비숍, 캘리포니아, 미국

위도: 37-22-16N, 경도: 118-21-29W, 고도: 1256m

현재 날씨관측

예보는 30분 전, 06:56시(UTC)에 발표되었습니다.
북북서6kt
온도 6°C
습도 36%
기압 1020 hPa
시정: 16.1km
맑음

METAR: KBIH 210656Z AUTO 33006KT 10SM CLR 06/M08 A3012 RMK AO2 SLP172 T00611078

시각: 00:26 (07:26 UTC)

예보

예보는 2 시간 6분 전, 05:20시(UTC)에 발표되었습니다.
예보 대상 시간: 21일 06시부터 22일 06시까지 (UTC)
7kt
시정: 10km
고도 10000ft 상공 구름 보통
21일 0900시부터 (UTC)
북북서6kt
시정: 10km
고도 10000ft 상공 구름 보통
21일 2100시부터 (UTC)
10kt
시정: 10km
고도 10000ft 상공 구름 보통

TAF: KBIH 210520Z 2106/2206 17007KT P6SM SCT100 FM210900 33006KT P6SM SCT100 FM212100 17010KT P6SM SCT100

4,000개 이상의 공항 관측 자료 및 예보 (METAR 및 TAF 보고).

지도상에서 검색 가능한 기상관측소가 노란 점과 빨간 점으로 표시되어 있습니다.

기상관측소 명을 보려면 표시 위로 마우스를 이동하세요.

날씨 관측과 예보를 보려면 클릭하세요.

지도 변경 : 확대하려면 엑스 표시가 있는 녹색 버튼, 축소하려면 빼기 표시가 있는 녹색 버튼, 다음 페이지의 지도를 보려면 녹색 화살표를 클릭하세요.


METAR-TAF: